Time;durP1;ratioP1;P1;durP2;ratioP2;P2;SDS_P1;SDS_P2;PMS_P1;PMS_P2;Temp;Humidity;BMP_temperature;BMP_pressure;BME280_temperature;BME280_humidity;BME280_pressure;Samples;Min_cycle;Max_cycle;Signal;HPM_P1;HPM_P2
2022/10/11 00:00:32;;;;;;;15.35;5.03;;;;;;;15.44;100.00;100888.00;20495828;29;20039;-69
2022/10/11 00:10:34;;;;;;;14.68;4.78;;;;;;;15.31;100.00;100891.88;20490416;29;20580;-69
2022/10/11 00:20:35;;;;;;;10.27;4.22;;;;;;;15.31;100.00;100891.88;20496368;28;20125;-69
2022/10/11 00:30:36;;;;;;;10.32;4.32;;;;;;;15.31;100.00;100897.16;20539534;28;20050;-69
2022/10/11 00:40:38;;;;;;;12.65;5.35;;;;;;;15.14;100.00;100905.53;20589936;28;20452;-69
2022/10/11 00:50:39;;;;;;;15.25;5.35;;;;;;;15.07;100.00;100903.94;20589308;28;20058;-70
2022/10/11 01:00:41;;;;;;;14.20;5.40;;;;;;;15.13;100.00;100914.34;20588239;28;20043;-69
2022/10/11 01:10:42;;;;;;;14.93;5.65;;;;;;;15.10;100.00;100923.22;20473218;28;20063;-69
2022/10/11 01:20:44;;;;;;;15.85;5.72;;;;;;;15.04;100.00;100920.75;20427188;29;20051;-70
2022/10/11 01:30:45;;;;;;;18.88;6.55;;;;;;;15.03;100.00;100921.63;20486875;28;20097;-70
2022/10/11 01:40:47;;;;;;;16.52;5.82;;;;;;;14.84;100.00;100917.72;20584464;28;20113;-70
2022/10/11 01:50:48;;;;;;;16.75;6.45;;;;;;;14.71;100.00;100921.56;20583985;28;20062;-70
2022/10/11 02:00:49;;;;;;;17.95;7.85;;;;;;;14.74;100.00;100932.03;20583233;28;20047;-70
2022/10/11 02:10:51;;;;;;;18.15;7.97;;;;;;;14.71;100.00;100937.38;20570772;28;20071;-69
2022/10/11 02:20:52;;;;;;;24.38;9.30;;;;;;;14.62;100.00;100951.66;20501790;28;20047;-69
2022/10/11 02:30:54;;;;;;;23.92;10.88;;;;;;;14.53;100.00;100960.63;20501609;28;20051;-69
2022/10/11 02:40:55;;;;;;;27.42;11.40;;;;;;;14.36;100.00;100949.56;20501204;29;20102;-69
2022/10/11 02:50:56;;;;;;;19.73;11.50;;;;;;;14.34;100.00;100954.03;20500146;28;20048;-70
2022/10/11 03:00:58;;;;;;;23.45;13.95;;;;;;;14.41;100.00;100981.09;20498406;29;20054;-69
2022/10/11 03:10:59;;;;;;;26.75;15.13;;;;;;;14.16;100.00;100976.34;20498910;29;20051;-69
2022/10/11 03:21:01;;;;;;;29.10;17.33;;;;;;;13.93;100.00;100968.94;20497768;29;20488;-69
2022/10/11 03:31:02;;;;;;;31.77;17.45;;;;;;;13.82;100.00;100978.81;20496167;28;20051;-69
2022/10/11 03:41:03;;;;;;;30.77;18.17;;;;;;;13.65;100.00;100988.78;20496727;29;20110;-70
2022/10/11 03:51:05;;;;;;;32.33;19.60;;;;;;;13.54;100.00;100989.88;20496320;29;20055;-69
2022/10/11 04:01:06;;;;;;;33.47;19.52;;;;;;;13.50;100.00;101001.34;20495786;28;20094;-70
2022/10/11 04:11:07;;;;;;;34.33;20.42;;;;;;;13.49;100.00;101004.88;20495444;29;20058;-69
2022/10/11 04:21:09;;;;;;;33.92;19.25;;;;;;;13.31;100.00;100999.94;20494701;29;20113;-69
2022/10/11 04:31:10;;;;;;;37.40;18.60;;;;;;;13.00;100.00;101005.69;20526857;28;20042;-68
2022/10/11 04:41:11;;;;;;;27.20;16.45;;;;;;;12.95;100.00;101011.91;20574408;28;20058;-68
2022/10/11 04:51:13;;;;;;;27.25;13.65;;;;;;;12.61;100.00;101040.44;20574654;28;20055;-69
2022/10/11 05:01:14;;;;;;;25.27;11.60;;;;;;;12.42;100.00;101043.31;20571616;28;20531;-69
2022/10/11 05:11:16;;;;;;;23.90;10.48;;;;;;;12.23;100.00;101060.19;20526252;28;20098;-69
2022/10/11 05:21:17;;;;;;;25.92;10.00;;;;;;;12.17;100.00;101069.00;20507006;28;20102;-69
2022/10/11 05:31:19;;;;;;;15.88;8.93;;;;;;;12.26;100.00;101089.00;20507674;29;20500;-68
2022/10/11 05:41:20;;;;;;;18.70;6.38;;;;;;;12.13;100.00;101087.44;20505663;29;20484;-68
2022/10/11 05:51:21;;;;;;;15.77;4.13;;;;;;;12.10;100.00;101103.19;20503466;28;20112;-68
2022/10/11 06:01:23;;;;;;;13.40;3.58;;;;;;;11.91;100.00;101124.38;20503135;28;20052;-68
2022/10/11 06:11:24;;;;;;;12.63;2.25;;;;;;;11.77;100.00;101137.59;20503417;28;20073;-68
2022/10/11 06:21:26;;;;;;;10.90;2.80;;;;;;;11.73;100.00;101158.63;20500579;28;20055;-68
2022/10/11 06:31:27;;;;;;;10.73;2.38;;;;;;;11.49;100.00;101184.16;20501089;28;20105;-68
2022/10/11 06:41:28;;;;;;;10.63;2.10;;;;;;;11.64;99.88;101187.53;20498956;28;20106;-68
2022/10/11 06:51:30;;;;;;;10.00;2.58;;;;;;;11.63;100.00;101201.53;20497984;28;20063;-68
2022/10/11 07:01:31;;;;;;;14.13;2.08;;;;;;;11.72;98.68;101198.84;20497948;28;20466;-68
2022/10/11 07:11:33;;;;;;;13.75;1.83;;;;;;;11.66;96.13;101226.00;20496707;28;20092;-68
2022/10/11 07:21:34;;;;;;;14.02;2.03;;;;;;;11.54;95.91;101226.94;20487441;28;20094;-69
2022/10/11 07:31:35;;;;;;;13.63;2.53;;;;;;;11.52;95.12;101241.84;20497142;28;20075;-70
2022/10/11 07:41:37;;;;;;;17.17;2.20;;;;;;;11.86;93.55;101241.63;20495235;28;20066;-70
2022/10/11 07:51:45;;;;;;;16.13;2.65;;;;;;;12.06;94.97;101244.97;20493409;28;20050;-70
2022/10/11 08:01:47;;;;;;;14.15;2.28;;;;;;;11.81;97.94;101241.63;20494293;28;20062;-70
2022/10/11 08:11:48;;;;;;;12.18;2.10;;;;;;;11.90;99.17;101259.09;20496047;28;20084;-70
2022/10/11 08:21:49;;;;;;;11.13;2.47;;;;;;;11.97;100.00;101255.53;20495915;28;20489;-69
2022/10/11 08:31:51;;;;;;;8.95;3.05;;;;;;;12.32;99.08;101257.03;20533175;28;20055;-70
2022/10/11 08:41:52;;;;;;;12.27;3.33;;;;;;;12.37;99.27;101260.47;20575048;28;20518;-70
2022/10/11 08:51:58;;;;;;;10.32;2.45;;;;;;;12.14;98.73;101265.06;20588734;28;20055;-70
2022/10/11 09:02:00;;;;;;;11.63;3.05;;;;;;;12.11;100.00;101271.19;20588070;28;20053;-69
2022/10/11 09:12:01;;;;;;;16.25;3.30;;;;;;;12.25;100.00;101257.94;20588422;28;20495;-70
2022/10/11 09:22:03;;;;;;;12.07;3.00;;;;;;;12.32;100.00;101251.75;20586746;28;20070;-71
2022/10/11 09:32:04;;;;;;;11.52;2.88;;;;;;;12.49;99.84;101248.97;20545328;28;20071;-69
2022/10/11 09:42:06;;;;;;;17.33;2.80;;;;;;;12.47;100.00;101249.00;20505022;29;20051;-69
2022/10/11 09:52:08;;;;;;;10.40;2.40;;;;;;;12.63;100.00;101247.06;20505693;29;20488;-69
2022/10/11 10:02:09;;;;;;;14.77;2.45;;;;;;;13.00;97.03;101229.13;20591714;23;20067;-75
2022/10/11 10:12:10;;;;;;;10.23;3.00;;;;;;;13.41;95.54;101235.59;20504346;28;20055;-73
2022/10/11 10:22:12;;;;;;;9.80;2.60;;;;;;;13.44;94.91;101222.44;20502448;28;20047;-73
2022/10/11 10:32:13;;;;;;;11.98;3.22;;;;;;;13.87;94.70;101224.41;20543662;28;20538;-73
2022/10/11 10:42:15;;;;;;;10.68;3.05;;;;;;;13.97;93.52;101222.50;20581279;28;20554;-73
2022/10/11 10:52:17;;;;;;;12.68;3.13;;;;;;;14.14;91.91;101222.22;20580727;28;20050;-73
2022/10/11 11:02:18;;;;;;;12.82;3.40;;;;;;;14.62;89.56;101218.72;20578376;28;20205;-73
2022/10/11 11:12:40;;;;;;;11.95;3.53;;;;;;;14.22;89.73;101217.66;20578546;28;20596;-71
2022/10/11 11:22:41;;;;;;;13.40;3.00;;;;;;;14.21;90.57;101231.75;20578200;28;20187;-71
2022/10/11 11:32:42;;;;;;;13.13;3.10;;;;;;;14.61;90.13;101222.25;20532117;28;20055;-69
2022/10/11 11:42:46;;;;;;;14.60;3.35;;;;;;;14.88;88.02;101199.72;20497119;29;20058;-69
2022/10/11 11:52:47;;;;;;;11.85;3.05;;;;;;;14.96;89.69;101186.41;20496649;29;20058;-70
2022/10/11 12:02:48;;;;;;;14.73;3.83;;;;;;;14.93;87.92;101191.72;20496186;29;20420;-71
2022/10/11 12:12:50;;;;;;;18.92;3.85;;;;;;;15.19;88.19;101183.25;20491373;28;20662;-71
2022/10/11 12:22:51;;;;;;;11.23;3.67;;;;;;;15.31;88.19;101175.06;20504271;28;20055;-71
2022/10/11 12:32:52;;;;;;;10.98;3.67;;;;;;;15.28;87.23;101161.06;20557250;28;20101;-71
2022/10/11 12:42:54;;;;;;;12.07;4.13;;;;;;;15.63;87.52;101147.94;20590408;28;20090;-71
2022/10/11 12:52:55;;;;;;;13.43;4.18;;;;;;;15.44;86.37;101157.19;20589541;28;20102;-71
2022/10/11 13:02:56;;;;;;;11.68;3.13;;;;;;;15.68;87.24;101139.06;20588363;28;20470;-71
2022/10/11 13:12:58;;;;;;;16.00;4.47;;;;;;;15.92;84.77;101133.13;20570700;28;20046;-71
2022/10/11 13:23:00;;;;;;;13.02;4.85;;;;;;;15.83;87.01;101122.81;20587348;28;20113;-71
2022/10/11 13:33:01;;;;;;;11.85;3.92;;;;;;;15.98;85.44;101118.91;20536404;28;20051;-71
2022/10/11 13:43:04;;;;;;;16.02;4.55;;;;;;;15.90;86.46;101113.81;20505826;29;20082;-71
2022/10/11 13:53:05;;;;;;;12.88;3.70;;;;;;;16.08;84.16;101108.03;20503171;29;20524;-71
2022/10/11 14:03:06;;;;;;;9.32;3.22;;;;;;;16.16;82.27;101095.50;20503202;29;20066;-71
2022/10/11 14:13:08;;;;;;;12.15;3.15;;;;;;;16.13;80.15;101103.50;20501460;29;20051;-71
2022/10/11 14:23:09;;;;;;;13.57;3.05;;;;;;;16.20;80.28;101104.22;20502000;29;20110;-71
2022/10/11 14:33:10;;;;;;;10.43;2.22;;;;;;;16.00;77.28;101099.47;20497007;28;20417;-71
2022/10/11 14:43:12;;;;;;;10.77;2.08;;;;;;;15.81;77.46;101098.19;20495743;28;20051;-71
2022/10/11 14:53:13;;;;;;;8.02;2.15;;;;;;;15.83;77.34;101105.19;20497662;28;20055;-71
2022/10/11 15:03:14;;;;;;;12.45;2.28;;;;;;;15.74;77.54;101109.84;20495142;28;20126;-72
2022/10/11 15:13:15;;;;;;;10.07;1.92;;;;;;;15.70;77.55;101095.84;20495061;28;20070;-72
2022/10/11 15:23:17;;;;;;;15.40;2.33;;;;;;;15.48;77.16;101084.94;20496029;29;20055;-71
2022/10/11 15:33:18;;;;;;;8.82;1.83;;;;;;;15.44;78.18;101098.25;20543891;28;20101;-72
2022/10/11 15:43:20;;;;;;;9.95;2.00;;;;;;;15.36;77.03;101096.66;20573424;28;20368;-72
2022/10/11 15:53:27;;;;;;;8.15;1.80;;;;;;;15.04;79.53;101094.81;20561104;28;20083;-72
2022/10/11 16:03:28;;;;;;;13.82;1.95;;;;;;;14.92;80.32;101095.06;20515342;23;20196;-76
2022/10/11 16:13:30;;;;;;;7.63;1.50;;;;;;;14.81;81.51;101091.81;20516964;28;20080;-78
2022/10/11 16:23:31;;;;;;;9.40;1.60;;;;;;;14.38;82.61;101090.06;20528163;28;20130;-78
2022/10/11 16:33:33;;;;;;;7.78;2.45;;;;;;;14.20;81.20;101083.38;20523209;28;20074;-78
2022/10/11 16:43:35;;;;;;;10.50;2.90;;;;;;;13.92;80.08;101083.03;20509851;28;20489;-79
2022/10/11 16:53:36;;;;;;;6.88;2.10;;;;;;;13.69;81.47;101093.97;20548730;28;20091;-78
2022/10/11 17:03:38;;;;;;;11.65;2.10;;;;;;;13.44;82.64;101090.91;20599447;28;20522;-78
2022/10/11 17:13:39;;;;;;;10.75;2.90;;;;;;;13.21;84.40;101104.38;20551497;28;20114;-78
2022/10/11 17:23:40;;;;;;;15.43;2.65;;;;;;;13.02;86.11;101106.41;20540617;28;20070;-80
2022/10/11 17:33:42;;;;;;;10.55;3.35;;;;;;;12.73;89.06;101112.06;20537970;28;20114;-80
2022/10/11 17:43:43;;;;;;;8.98;2.58;;;;;;;12.65;89.71;101123.56;20567330;28;20105;-80
2022/10/11 17:53:45;;;;;;;13.07;3.05;;;;;;;12.34;92.56;101113.44;20553614;28;20042;-79
2022/10/11 18:03:46;;;;;;;9.90;2.78;;;;;;;12.18;94.80;101119.75;20508998;28;20468;-80
2022/10/11 18:13:48;;;;;;;13.40;4.20;;;;;;;11.93;95.86;101119.09;20521910;28;20114;-79
2022/10/11 18:23:49;;;;;;;11.05;3.33;;;;;;;11.76;96.45;101120.13;20572460;28;20504;-80
2022/10/11 18:33:50;;;;;;;11.82;3.13;;;;;;;11.68;95.42;101114.06;20538260;28;20054;-80
2022/10/11 18:43:52;;;;;;;12.70;3.10;;;;;;;11.61;95.20;101122.00;20519189;28;20078;-80
2022/10/11 18:53:53;;;;;;;13.95;3.53;;;;;;;11.47;96.02;101122.13;20557256;28;20047;-79
2022/10/11 19:03:57;;;;;;;12.65;3.40;;;;;;;11.46;96.64;101118.63;20567123;28;20047;-78
2022/10/11 19:13:59;;;;;;;11.60;3.73;;;;;;;11.30;99.32;101122.22;20532197;28;20051;-79
2022/10/11 19:24:02;;;;;;;15.07;3.90;;;;;;;11.44;98.85;101127.38;20560915;28;20082;-80
2022/10/11 19:34:03;;;;;;;12.77;3.75;;;;;;;11.67;98.87;101119.31;20569737;28;20047;-80
2022/10/11 19:44:06;;;;;;;12.48;3.50;;;;;;;11.84;97.81;101116.59;20513782;28;20051;-79
2022/10/11 19:54:07;;;;;;;16.33;4.85;;;;;;;11.85;99.11;101120.97;20494940;28;20571;-80
2022/10/11 20:04:08;;;;;;;11.57;3.55;;;;;;;11.96;100.00;101122.59;20492828;28;20051;-79
2022/10/11 20:14:30;;;;;;;14.73;4.03;;;;;;;11.99;100.00;101127.81;20499676;28;20055;-80
2022/10/11 20:24:33;;;;;;;14.95;3.80;;;;;;;11.99;100.00;101129.56;20507576;28;20048;-80
2022/10/11 20:34:38;;;;;;;21.45;3.83;;;;;;;11.98;100.00;101126.06;20507694;28;20055;-79
2022/10/11 20:44:39;;;;;;;9.67;3.43;;;;;;;11.92;100.00;101136.59;20518679;28;20442;-80
2022/10/11 20:54:41;;;;;;;11.50;3.53;;;;;;;12.01;100.00;101141.78;20524729;28;20105;-78
2022/10/11 21:04:42;;;;;;;12.52;3.78;;;;;;;12.17;100.00;101128.50;20506964;28;20118;-79
2022/10/11 21:14:44;;;;;;;18.92;3.60;;;;;;;12.16;100.00;101134.63;20520798;28;20467;-78
2022/10/11 21:24:45;;;;;;;12.82;3.80;;;;;;;12.09;100.00;101128.59;20500998;28;20185;-78
2022/10/11 21:34:47;;;;;;;11.27;3.65;;;;;;;12.01;100.00;101126.03;20561811;28;20105;-78
2022/10/11 21:44:48;;;;;;;13.15;3.10;;;;;;;12.05;100.00;101121.63;20602060;28;20049;-78
2022/10/11 21:54:49;;;;;;;12.30;3.70;;;;;;;12.00;100.00;101124.28;20608246;28;20137;-77
2022/10/11 22:04:51;;;;;;;14.20;3.10;;;;;;;11.78;100.00;101112.22;20603930;28;20081;-78
2022/10/11 22:14:52;;;;;;;12.52;3.63;;;;;;;11.66;100.00;101099.22;20530291;28;20415;-78
2022/10/11 22:24:53;;;;;;;11.20;3.28;;;;;;;11.66;100.00;101091.38;20496205;29;20058;-78
2022/10/11 22:34:55;;;;;;;11.85;2.80;;;;;;;11.52;100.00;101084.47;20492911;29;20468;-77
2022/10/11 22:44:56;;;;;;;15.75;3.53;;;;;;;11.50;100.00;101081.00;20509687;29;20109;-78
2022/10/11 22:54:58;;;;;;;12.77;3.25;;;;;;;11.45;99.82;101074.94;20494152;29;20058;-77
2022/10/11 23:04:59;;;;;;;11.63;3.13;;;;;;;11.21;100.00;101083.88;20505388;28;20059;-78
2022/10/11 23:15:00;;;;;;;10.98;3.47;;;;;;;11.15;99.36;101089.13;20505173;29;20050;-79
2022/10/11 23:25:02;;;;;;;9.55;2.78;;;;;;;10.89;99.39;101089.31;20504363;29;20102;-79
2022/10/11 23:35:04;;;;;;;9.68;2.85;;;;;;;10.55;100.00;101090.38;20502617;29;20527;-79
2022/10/11 23:45:05;;;;;;;19.13;3.58;;;;;;;10.32;100.00;101080.88;20502609;29;20110;-79
2022/10/11 23:55:06;;;;;;;12.07;3.28;;;;;;;10.12;100.00;101080.03;20486075;29;20106;-79
